Time;durP1;ratioP1;P1;durP2;ratioP2;P2;SDS_P1;SDS_P2;PMS_P1;PMS_P2;Temp;Humidity;BMP_temperature;BMP_pressure;BME280_temperature;BME280_humidity;BME280_pressure;Samples;Min_cycle;Max_cycle;Signal;HPM_P1;HPM_P2
2024/01/29 00:01:43;;;;;;;5.20;4.43;;;4.30;99.90;;;;;;5023681;28;20238;-56
2024/01/29 00:04:09;;;;;;;5.37;4.33;;;4.30;99.90;;;;;;5025434;28;20199;-56
2024/01/29 00:06:39;;;;;;;5.70;4.63;;;4.30;99.90;;;;;;5023282;28;20205;-57
2024/01/29 00:09:05;;;;;;;6.43;4.20;;;4.30;99.90;;;;;;5021876;28;20210;-58
2024/01/29 00:11:33;;;;;;;8.27;4.30;;;4.30;99.90;;;;;;5022640;28;20227;-57
2024/01/29 00:14:00;;;;;;;5.93;4.23;;;4.30;99.90;;;;;;5025340;28;20588;-57
2024/01/29 00:16:27;;;;;;;5.90;4.40;;;4.20;99.90;;;;;;5024516;28;20221;-57
2024/01/29 00:18:54;;;;;;;6.93;4.40;;;4.20;99.90;;;;;;5021557;28;20669;-57
2024/01/29 00:21:21;;;;;;;8.03;4.40;;;4.10;99.90;;;;;;5021738;28;20223;-59
2024/01/29 00:23:49;;;;;;;5.60;4.70;;;4.20;99.90;;;;;;5024695;28;20210;-59
2024/01/29 00:26:15;;;;;;;7.20;4.70;;;4.20;99.90;;;;;;5024661;28;20211;-57
2024/01/29 00:28:42;;;;;;;4.57;4.00;;;4.20;99.90;;;;;;5022550;28;20203;-57
2024/01/29 00:31:09;;;;;;;6.70;4.40;;;4.30;99.90;;;;;;5021574;28;20227;-56
2024/01/29 00:33:36;;;;;;;9.10;5.03;;;4.30;99.90;;;;;;5022799;28;20234;-58
2024/01/29 00:36:03;;;;;;;5.97;4.30;;;4.30;99.90;;;;;;5024683;28;20223;-56
2024/01/29 00:38:30;;;;;;;4.97;3.90;;;4.40;99.90;;;;;;5023890;28;20293;-57
2024/01/29 00:40:58;;;;;;;5.40;4.00;;;4.30;99.90;;;;;;5021154;28;20203;-56
2024/01/29 00:43:25;;;;;;;5.40;3.83;;;4.20;99.90;;;;;;5024815;28;20727;-58
2024/01/29 00:45:51;;;;;;;5.20;3.77;;;4.30;99.90;;;;;;5018389;28;20203;-57
2024/01/29 00:48:20;;;;;;;5.93;3.77;;;4.30;99.90;;;;;;5023197;28;20345;-59
2024/01/29 00:50:46;;;;;;;5.43;3.47;;;4.30;99.90;;;;;;5023925;28;20241;-58
2024/01/29 00:53:13;;;;;;;7.83;4.00;;;4.30;99.90;;;;;;5024431;28;20202;-57
2024/01/29 00:55:41;;;;;;;6.23;3.70;;;4.30;99.90;;;;;;5022342;28;20230;-58
2024/01/29 00:58:09;;;;;;;6.40;4.00;;;4.20;99.90;;;;;;5020873;28;20509;-57
2024/01/29 01:00:38;;;;;;;7.37;4.63;;;4.20;99.90;;;;;;5022281;28;20207;-57
2024/01/29 01:03:05;;;;;;;5.80;3.60;;;4.20;99.90;;;;;;5024094;28;20210;-58
2024/01/29 01:05:31;;;;;;;13.07;7.13;;;4.10;99.90;;;;;;5023371;28;20206;-57
2024/01/29 01:07:58;;;;;;;6.90;4.93;;;4.10;99.90;;;;;;5020515;28;20210;-57
2024/01/29 01:10:25;;;;;;;6.17;4.20;;;4.10;99.90;;;;;;5020872;28;20199;-57
2024/01/29 01:12:52;;;;;;;6.63;3.57;;;4.00;99.90;;;;;;5020246;28;20273;-57
2024/01/29 01:15:20;;;;;;;6.23;3.50;;;3.90;99.90;;;;;;5020543;28;20226;-58
2024/01/29 01:17:47;;;;;;;6.30;4.20;;;3.90;99.90;;;;;;5022905;28;20666;-57
2024/01/29 01:20:14;;;;;;;9.53;6.47;;;3.90;99.90;;;;;;5023947;28;20206;-57
2024/01/29 01:22:41;;;;;;;8.97;5.73;;;3.90;99.90;;;;;;5021828;28;20222;-57
2024/01/29 01:25:08;;;;;;;8.07;4.97;;;3.80;99.90;;;;;;5020543;28;20573;-58
2024/01/29 01:27:34;;;;;;;5.57;4.43;;;3.80;99.90;;;;;;5021356;28;20211;-57
2024/01/29 01:30:01;;;;;;;4.90;3.70;;;3.80;99.90;;;;;;5024088;28;20619;-57
2024/01/29 01:32:29;;;;;;;5.47;3.43;;;3.70;99.90;;;;;;5023806;28;20704;-58
2024/01/29 01:34:56;;;;;;;5.97;4.37;;;3.70;99.90;;;;;;5020473;28;20235;-58
2024/01/29 01:37:22;;;;;;;6.10;4.33;;;3.60;99.90;;;;;;5020911;28;20207;-58
2024/01/29 01:39:52;;;;;;;4.40;3.60;;;3.60;99.90;;;;;;5023473;28;20214;-59
2024/01/29 01:42:19;;;;;;;5.00;3.80;;;3.60;99.90;;;;;;5023960;28;20222;-58
2024/01/29 01:44:47;;;;;;;6.17;3.57;;;3.60;99.90;;;;;;5021458;28;20294;-58
2024/01/29 01:47:13;;;;;;;4.07;3.47;;;3.60;99.90;;;;;;5020183;28;20233;-58
2024/01/29 01:49:42;;;;;;;4.70;3.07;;;3.50;99.90;;;;;;5021761;28;20219;-58
2024/01/29 01:52:09;;;;;;;3.80;2.93;;;3.50;99.90;;;;;;5023647;28;20222;-58
2024/01/29 01:54:37;;;;;;;4.37;3.20;;;3.40;99.90;;;;;;5022419;28;20214;-59
2024/01/29 01:57:04;;;;;;;4.93;3.80;;;3.40;99.90;;;;;;5019884;28;20230;-58
2024/01/29 01:59:34;;;;;;;4.40;3.03;;;3.40;99.90;;;;;;5020448;28;20561;-57
2024/01/29 02:02:01;;;;;;;4.47;3.00;;;3.40;99.90;;;;;;5023199;28;20230;-58
2024/01/29 02:04:28;;;;;;;3.70;3.00;;;3.40;99.90;;;;;;5023639;28;20206;-57
2024/01/29 02:06:56;;;;;;;3.30;2.80;;;3.40;99.90;;;;;;5019952;28;20203;-57
2024/01/29 02:09:23;;;;;;;4.30;2.97;;;3.40;99.90;;;;;;5020091;28;20206;-58
2024/01/29 02:11:50;;;;;;;7.90;3.30;;;3.40;99.90;;;;;;5022998;28;20601;-57
2024/01/29 02:14:17;;;;;;;4.13;2.80;;;3.40;99.90;;;;;;5023462;28;20206;-58
2024/01/29 02:16:43;;;;;;;3.90;3.07;;;3.40;99.90;;;;;;5020997;28;20218;-58
2024/01/29 02:19:15;;;;;;;4.73;3.50;;;3.40;99.90;;;;;;5020197;28;20273;-58
2024/01/29 02:21:42;;;;;;;6.27;3.67;;;3.40;99.90;;;;;;5021716;28;20582;-57
2024/01/29 02:24:10;;;;;;;4.87;3.60;;;3.40;99.90;;;;;;5023697;28;20198;-58
2024/01/29 02:26:37;;;;;;;5.03;3.83;;;3.30;99.90;;;;;;5025916;28;20275;-58
2024/01/29 02:29:04;;;;;;;5.97;4.00;;;3.30;99.90;;;;;;5023793;28;20250;-58
2024/01/29 02:31:30;;;;;;;5.03;4.07;;;3.30;99.90;;;;;;5023913;28;20310;-57
2024/01/29 02:33:57;;;;;;;4.87;3.73;;;3.30;99.90;;;;;;5026936;28;20734;-57
2024/01/29 02:36:24;;;;;;;4.50;3.93;;;3.20;99.90;;;;;;5026839;28;20218;-58
2024/01/29 02:38:50;;;;;;;5.00;3.87;;;3.20;99.90;;;;;;5024045;28;20207;-59
2024/01/29 02:41:18;;;;;;;5.13;3.80;;;3.10;99.90;;;;;;5023366;28;20219;-56
2024/01/29 02:43:45;;;;;;;5.97;3.60;;;3.10;99.90;;;;;;5025284;28;20203;-57
2024/01/29 02:46:11;;;;;;;5.00;3.63;;;3.10;99.90;;;;;;5026822;28;20198;-58
2024/01/29 02:48:39;;;;;;;5.60;3.73;;;3.00;99.90;;;;;;5025606;28;20211;-56
2024/01/29 02:51:07;;;;;;;4.57;3.80;;;3.00;99.90;;;;;;5023143;28;20716;-56
2024/01/29 02:53:33;;;;;;;4.97;3.67;;;2.90;99.90;;;;;;5023567;28;20211;-57
2024/01/29 02:56:00;;;;;;;5.30;4.10;;;2.90;99.90;;;;;;5026510;28;20215;-56
2024/01/29 02:58:29;;;;;;;4.70;3.60;;;2.90;99.90;;;;;;5026235;28;20198;-60
2024/01/29 03:00:56;;;;;;;4.40;3.90;;;2.90;99.90;;;;;;5023057;28;20623;-57
2024/01/29 03:03:23;;;;;;;5.33;3.70;;;2.90;99.90;;;;;;5023091;28;20203;-59
2024/01/29 03:05:49;;;;;;;5.07;3.63;;;2.80;99.90;;;;;;5025631;28;20207;-57
2024/01/29 03:08:16;;;;;;;4.27;3.70;;;2.80;99.90;;;;;;5026102;28;20206;-56
2024/01/29 03:10:43;;;;;;;6.07;3.77;;;2.70;99.90;;;;;;5024318;28;20206;-57
2024/01/29 03:13:10;;;;;;;4.13;3.67;;;2.70;99.90;;;;;;5023049;28;20211;-57
2024/01/29 03:15:38;;;;;;;5.13;3.83;;;2.60;99.90;;;;;;5023698;28;20261;-57
2024/01/29 03:18:05;;;;;;;6.80;4.03;;;2.60;99.90;;;;;;5026004;28;20224;-57
2024/01/29 03:20:31;;;;;;;7.70;4.00;;;2.60;99.90;;;;;;5025852;28;20217;-58
2024/01/29 03:22:58;;;;;;;5.60;4.20;;;2.60;99.90;;;;;;5022523;28;20273;-57
2024/01/29 03:25:25;;;;;;;6.87;3.63;;;2.50;99.90;;;;;;5022594;28;20203;-57
2024/01/29 03:27:51;;;;;;;4.93;3.80;;;2.50;99.90;;;;;;5025284;28;20292;-58
2024/01/29 03:30:18;;;;;;;5.93;4.07;;;2.50;99.90;;;;;;5026068;28;20206;-58
2024/01/29 03:32:48;;;;;;;5.50;4.07;;;2.40;99.90;;;;;;5023855;28;20230;-58
2024/01/29 03:35:15;;;;;;;6.40;4.00;;;2.40;99.90;;;;;;5022425;28;20220;-57
2024/01/29 03:37:45;;;;;;;5.10;3.93;;;2.40;99.90;;;;;;5022347;28;20219;-59
2024/01/29 03:40:13;;;;;;;5.90;4.03;;;2.40;99.90;;;;;;5025941;28;20293;-59
2024/01/29 03:42:40;;;;;;;5.17;3.63;;;2.30;99.90;;;;;;5024266;28;20226;-58
2024/01/29 03:45:07;;;;;;;7.70;4.17;;;2.30;99.90;;;;;;5022172;28;20203;-57
2024/01/29 03:47:34;;;;;;;3.63;3.20;;;2.30;99.90;;;;;;5022344;28;20210;-58
2024/01/29 03:50:02;;;;;;;5.37;3.73;;;2.30;99.90;;;;;;5025622;28;20248;-57
2024/01/29 03:52:29;;;;;;;5.13;3.90;;;2.30;99.90;;;;;;5025379;28;20292;-57
2024/01/29 03:54:56;;;;;;;4.63;3.60;;;2.30;99.90;;;;;;5022171;28;20203;-57
2024/01/29 03:57:22;;;;;;;5.07;3.90;;;2.30;99.90;;;;;;5021842;28;20607;-57
2024/01/29 03:59:49;;;;;;;5.90;4.27;;;2.30;99.90;;;;;;5024401;28;20219;-57
2024/01/29 04:02:15;;;;;;;5.30;3.90;;;2.40;99.90;;;;;;5043223;22;20285;-54
2024/01/29 04:04:44;;;;;;;5.43;4.23;;;2.50;99.90;;;;;;5013709;28;20218;-54
2024/01/29 04:07:12;;;;;;;5.20;4.00;;;2.50;99.90;;;;;;5013402;28;20286;-54
2024/01/29 04:09:39;;;;;;;5.53;4.03;;;2.50;99.90;;;;;;5013823;28;20207;-56
2024/01/29 04:12:06;;;;;;;6.27;5.27;;;2.50;99.90;;;;;;5009109;28;20271;-56
2024/01/29 04:14:33;;;;;;;5.33;4.33;;;2.50;99.90;;;;;;5002220;28;20208;-55
2024/01/29 04:17:00;;;;;;;7.33;4.80;;;2.40;99.90;;;;;;5005132;28;20227;-56
2024/01/29 04:19:26;;;;;;;6.30;4.53;;;2.30;99.90;;;;;;5005251;28;20704;-55
2024/01/29 04:21:53;;;;;;;7.93;5.00;;;2.20;99.90;;;;;;5002688;28;20228;-57
2024/01/29 04:24:21;;;;;;;6.43;5.00;;;2.30;99.90;;;;;;5002253;28;20591;-55
2024/01/29 04:26:48;;;;;;;8.80;5.43;;;2.30;99.90;;;;;;5003837;28;20204;-56
2024/01/29 04:29:14;;;;;;;7.73;5.17;;;2.40;99.90;;;;;;5005116;28;20206;-55
2024/01/29 04:31:41;;;;;;;6.07;4.60;;;2.40;99.90;;;;;;5003794;28;20620;-56
2024/01/29 04:34:09;;;;;;;6.10;4.03;;;2.50;99.90;;;;;;5001599;28;20211;-56
2024/01/29 04:36:36;;;;;;;5.90;4.70;;;2.50;99.90;;;;;;5001596;28;20775;-56
2024/01/29 04:39:04;;;;;;;5.00;4.20;;;2.60;99.90;;;;;;5005210;28;20202;-55
2024/01/29 04:41:33;;;;;;;6.40;4.60;;;2.70;99.90;;;;;;5004979;28;20223;-55
2024/01/29 04:43:59;;;;;;;6.57;4.70;;;2.70;99.90;;;;;;5001709;28;20207;-57
2024/01/29 04:46:26;;;;;;;6.77;5.20;;;2.80;99.90;;;;;;5001280;28;20214;-55
2024/01/29 04:48:53;;;;;;;5.97;4.60;;;2.90;99.90;;;;;;5003639;28;20222;-55
2024/01/29 04:51:20;;;;;;;9.17;5.27;;;2.90;99.90;;;;;;5004713;28;20203;-55
2024/01/29 04:53:47;;;;;;;6.17;5.13;;;3.00;99.90;;;;;;5002841;28;20235;-56
2024/01/29 04:56:14;;;;;;;7.40;5.00;;;3.10;99.90;;;;;;5001012;28;20228;-56
2024/01/29 04:58:42;;;;;;;7.30;5.03;;;3.10;99.90;;;;;;5002234;28;20204;-56
2024/01/29 05:01:09;;;;;;;6.73;5.37;;;3.10;99.90;;;;;;5004357;28;20207;-56
2024/01/29 05:03:36;;;;;;;7.53;5.30;;;3.40;99.90;;;;;;5004141;28;20297;-56
2024/01/29 05:06:03;;;;;;;7.77;5.27;;;3.20;99.90;;;;;;5001037;28;20673;-55
2024/01/29 05:08:31;;;;;;;7.13;5.00;;;3.20;99.90;;;;;;5000866;28;20208;-56
2024/01/29 05:10:57;;;;;;;6.83;5.80;;;3.20;99.90;;;;;;5004072;28;20207;-54
2024/01/29 05:13:24;;;;;;;7.63;4.83;;;3.20;99.90;;;;;;5004177;28;20222;-55
2024/01/29 05:15:52;;;;;;;6.60;5.20;;;3.30;99.90;;;;;;5001833;28;20237;-56
2024/01/29 05:18:19;;;;;;;8.40;5.10;;;3.30;99.90;;;;;;5000866;28;20220;-55
2024/01/29 05:20:45;;;;;;;6.83;5.30;;;3.40;99.90;;;;;;5002192;28;20696;-55
2024/01/29 05:23:12;;;;;;;6.27;4.90;;;3.40;99.90;;;;;;5004254;28;20223;-55
2024/01/29 05:25:39;;;;;;;7.67;5.33;;;3.40;99.90;;;;;;5003456;28;20211;-56
2024/01/29 05:28:06;;;;;;;6.93;5.00;;;3.50;99.90;;;;;;5000487;28;20210;-56
2024/01/29 05:30:32;;;;;;;6.93;5.63;;;3.60;99.90;;;;;;5000635;28;20627;-56
2024/01/29 05:33:01;;;;;;;8.40;5.50;;;3.50;99.90;;;;;;4992308;28;20794;-56
2024/01/29 05:35:27;;;;;;;7.47;5.60;;;3.60;99.90;;;;;;5000768;28;20203;-55
2024/01/29 05:37:54;;;;;;;7.57;5.20;;;3.40;99.90;;;;;;5002850;28;20224;-55
2024/01/29 05:40:21;;;;;;;6.27;5.37;;;3.40;99.90;;;;;;5003914;28;20214;-55
2024/01/29 05:42:52;;;;;;;8.60;5.37;;;3.40;99.90;;;;;;5001829;28;20231;-56
2024/01/29 05:45:19;;;;;;;7.13;5.33;;;3.40;99.90;;;;;;5000848;28;20208;-56
2024/01/29 05:47:46;;;;;;;6.60;5.17;;;3.50;99.90;;;;;;5001489;28;20207;-55
2024/01/29 05:50:14;;;;;;;7.50;5.47;;;3.60;99.90;;;;;;5004012;28;20253;-56
2024/01/29 05:52:41;;;;;;;6.87;5.10;;;3.70;99.90;;;;;;5002960;28;20231;-57
2024/01/29 05:55:08;;;;;;;7.97;5.83;;;3.80;99.90;;;;;;5000556;28;20213;-57
2024/01/29 05:57:35;;;;;;;6.60;5.13;;;3.90;99.90;;;;;;4999822;28;20225;-54
2024/01/29 06:00:03;;;;;;;6.83;5.30;;;3.90;99.90;;;;;;5007181;28;20257;-55
2024/01/29 06:02:29;;;;;;;8.40;5.00;;;3.90;99.90;;;;;;5010491;28;20233;-55
2024/01/29 06:04:56;;;;;;;7.67;5.93;;;4.00;99.90;;;;;;5007739;28;20214;-54
2024/01/29 06:07:24;;;;;;;7.73;5.40;;;4.10;99.90;;;;;;5006547;28;20207;-54
2024/01/29 06:09:50;;;;;;;8.67;5.57;;;4.00;99.90;;;;;;5008677;28;20203;-54
2024/01/29 06:12:17;;;;;;;7.80;5.60;;;4.10;99.90;;;;;;5010044;28;20356;-56
2024/01/29 06:14:44;;;;;;;6.53;4.60;;;4.00;99.90;;;;;;5009037;28;20280;-55
2024/01/29 06:17:10;;;;;;;7.07;4.53;;;4.10;99.90;;;;;;5006943;28;20269;-54
2024/01/29 06:19:37;;;;;;;8.20;5.50;;;4.20;99.90;;;;;;5006926;28;20254;-55
2024/01/29 06:22:04;;;;;;;7.37;4.87;;;4.10;99.90;;;;;;5010196;28;20226;-55
2024/01/29 06:24:32;;;;;;;7.20;4.87;;;4.10;99.90;;;;;;5010032;28;20214;-56
2024/01/29 06:26:58;;;;;;;7.43;5.17;;;3.90;99.90;;;;;;5006757;28;20625;-55
2024/01/29 06:29:25;;;;;;;8.67;5.43;;;3.80;99.90;;;;;;5006841;28;20211;-55
2024/01/29 06:31:52;;;;;;;7.33;5.13;;;3.70;99.90;;;;;;5008953;28;20258;-55
2024/01/29 06:34:19;;;;;;;7.00;4.97;;;3.70;99.90;;;;;;5010162;28;20214;-55
2024/01/29 06:36:46;;;;;;;8.47;5.80;;;3.60;99.90;;;;;;5008354;28;20233;-55
2024/01/29 06:39:12;;;;;;;7.77;5.30;;;3.40;99.90;;;;;;5006735;28;20199;-55
2024/01/29 06:41:40;;;;;;;7.70;5.10;;;3.50;99.90;;;;;;5007784;28;20243;-55
2024/01/29 06:44:07;;;;;;;11.83;5.43;;;3.40;99.90;;;;;;5009964;28;20199;-55
2024/01/29 06:46:34;;;;;;;11.13;5.37;;;3.40;99.90;;;;;;5009756;28;20215;-55
2024/01/29 06:49:00;;;;;;;7.90;5.30;;;3.40;99.90;;;;;;5006503;28;20204;-55
2024/01/29 06:51:27;;;;;;;9.00;6.43;;;3.40;99.90;;;;;;5006347;28;20223;-55
2024/01/29 06:53:54;;;;;;;8.50;5.67;;;3.50;99.90;;;;;;5009321;28;20222;-55
2024/01/29 06:56:20;;;;;;;7.40;5.00;;;3.50;99.90;;;;;;5010198;28;20304;-56
2024/01/29 06:58:48;;;;;;;5.83;4.80;;;3.60;99.90;;;;;;5008881;28;20296;-57
2024/01/29 07:01:19;;;;;;;6.67;5.17;;;3.60;99.90;;;;;;5006627;28;20226;-57
2024/01/29 07:03:46;;;;;;;7.07;5.50;;;3.60;99.90;;;;;;5007662;28;20302;-56
2024/01/29 07:06:13;;;;;;;8.23;5.50;;;3.60;99.90;;;;;;5009617;28;20561;-55
2024/01/29 07:08:40;;;;;;;8.10;5.10;;;3.70;99.90;;;;;;5009172;28;20210;-56
2024/01/29 07:11:06;;;;;;;9.10;4.80;;;3.60;99.90;;;;;;5005289;28;20199;-56
2024/01/29 07:13:33;;;;;;;11.87;5.00;;;3.70;99.90;;;;;;5003291;28;20215;-56
2024/01/29 07:16:01;;;;;;;8.30;5.07;;;3.70;99.90;;;;;;5006409;28;20214;-56
2024/01/29 07:18:28;;;;;;;7.67;5.53;;;3.70;99.90;;;;;;5006090;28;20230;-56
2024/01/29 07:20:54;;;;;;;10.80;6.00;;;3.70;99.90;;;;;;5004066;28;20214;-55
2024/01/29 07:23:22;;;;;;;8.17;6.30;;;3.80;99.90;;;;;;5003225;28;20231;-56
2024/01/29 07:25:48;;;;;;;9.07;6.43;;;3.80;99.90;;;;;;5004651;28;20207;-56
2024/01/29 07:28:15;;;;;;;10.60;7.10;;;3.80;99.90;;;;;;5006275;28;20212;-56
2024/01/29 07:30:42;;;;;;;8.27;6.13;;;3.90;99.90;;;;;;5005846;28;20269;-56
2024/01/29 07:33:11;;;;;;;8.73;6.10;;;4.00;99.90;;;;;;5002701;28;20234;-55
2024/01/29 07:35:38;;;;;;;8.80;6.73;;;4.00;99.90;;;;;;5002847;28;20315;-56
2024/01/29 07:38:05;;;;;;;13.03;6.63;;;4.10;99.90;;;;;;4994913;28;20286;-56
2024/01/29 07:40:33;;;;;;;12.60;7.83;;;4.10;99.90;;;;;;5002948;28;20480;-57
2024/01/29 07:42:59;;;;;;;9.03;5.80;;;4.20;99.90;;;;;;5005054;28;20313;-57
2024/01/29 07:45:26;;;;;;;8.23;5.07;;;4.30;99.90;;;;;;5005922;28;20207;-56
2024/01/29 07:47:53;;;;;;;8.97;4.70;;;4.30;99.90;;;;;;5003416;28;20210;-56
2024/01/29 07:50:21;;;;;;;8.73;5.10;;;4.30;99.90;;;;;;5002791;28;20199;-56
2024/01/29 07:52:48;;;;;;;7.43;4.47;;;4.30;99.90;;;;;;5004023;28;20224;-56
2024/01/29 07:55:15;;;;;;;10.33;5.27;;;4.30;99.90;;;;;;5005959;28;20215;-55
2024/01/29 07:57:41;;;;;;;11.37;5.50;;;4.30;99.90;;;;;;5005571;28;20223;-55
2024/01/29 08:00:09;;;;;;;8.93;5.37;;;4.20;99.90;;;;;;5002970;28;20735;-55
2024/01/29 08:02:36;;;;;;;9.00;5.07;;;4.30;99.90;;;;;;5002211;28;20231;-56
2024/01/29 08:05:03;;;;;;;7.77;5.30;;;4.40;99.90;;;;;;5005587;28;20203;-56
2024/01/29 08:07:31;;;;;;;10.20;7.40;;;4.40;99.90;;;;;;5005369;28;20287;-56
2024/01/29 08:10:00;;;;;;;34.10;24.17;;;4.50;99.90;;;;;;5002787;28;20211;-56
2024/01/29 08:12:27;;;;;;;23.20;15.87;;;4.70;99.90;;;;;;5001964;28;20274;-56
2024/01/29 08:14:54;;;;;;;11.17;7.60;;;4.70;99.90;;;;;;5003511;28;20266;-55
2024/01/29 08:17:20;;;;;;;30.17;8.17;;;4.80;99.90;;;;;;5004915;28;20639;-57
2024/01/29 08:19:47;;;;;;;13.17;6.60;;;4.90;99.90;;;;;;5004195;28;20314;-56
2024/01/29 08:22:14;;;;;;;18.77;6.27;;;5.00;99.90;;;;;;5001151;28;20239;-55
2024/01/29 08:24:42;;;;;;;18.63;6.37;;;5.10;99.90;;;;;;5001905;28;20211;-56
2024/01/29 08:27:08;;;;;;;11.27;6.10;;;5.20;99.90;;;;;;5005042;28;20207;-55
2024/01/29 08:29:35;;;;;;;21.70;6.90;;;5.30;99.90;;;;;;5005484;28;20218;-55
2024/01/29 08:32:02;;;;;;;14.13;5.97;;;5.40;99.90;;;;;;5001475;28;20281;-55
2024/01/29 08:34:30;;;;;;;20.07;6.70;;;5.50;99.90;;;;;;5001640;28;20207;-57
2024/01/29 08:36:58;;;;;;;13.07;7.73;;;5.60;99.90;;;;;;5003626;28;20608;-57
2024/01/29 08:39:25;;;;;;;11.17;5.73;;;5.80;99.90;;;;;;5004632;28;20572;-57
2024/01/29 08:41:53;;;;;;;8.63;5.20;;;6.00;99.90;;;;;;5002934;28;20230;-55
2024/01/29 08:44:19;;;;;;;8.10;5.47;;;6.10;99.90;;;;;;5001337;28;20255;-57
2024/01/29 08:46:46;;;;;;;6.00;5.10;;;6.30;99.90;;;;;;5001677;28;20588;-57
2024/01/29 08:49:14;;;;;;;6.57;5.23;;;6.40;99.90;;;;;;5004628;28;20230;-57
2024/01/29 08:51:41;;;;;;;7.17;5.33;;;6.40;99.90;;;;;;5004197;28;20288;-57
2024/01/29 08:54:07;;;;;;;8.63;5.50;;;6.40;99.90;;;;;;5001023;28;20588;-57
2024/01/29 08:56:34;;;;;;;9.00;5.80;;;6.30;99.90;;;;;;5000714;28;20223;-57
2024/01/29 08:59:02;;;;;;;8.37;6.27;;;6.20;99.90;;;;;;5003551;28;20600;-57
2024/01/29 09:01:29;;;;;;;7.80;5.70;;;6.10;99.90;;;;;;5004138;28;20234;-59
2024/01/29 09:03:56;;;;;;;10.43;6.53;;;6.20;99.90;;;;;;5002328;28;20219;-56
2024/01/29 09:06:22;;;;;;;8.63;6.33;;;6.30;99.90;;;;;;5000797;28;20203;-57
2024/01/29 09:08:49;;;;;;;8.17;5.87;;;6.20;99.90;;;;;;5001538;28;20597;-57
2024/01/29 09:11:16;;;;;;;7.10;5.03;;;6.10;99.90;;;;;;5003860;28;20207;-56
2024/01/29 09:13:43;;;;;;;8.37;5.67;;;6.10;99.90;;;;;;5003814;28;20265;-57
2024/01/29 09:16:11;;;;;;;11.97;9.00;;;6.20;99.90;;;;;;5000522;28;20203;-57
2024/01/29 09:18:37;;;;;;;9.77;6.10;;;6.30;99.90;;;;;;5000455;28;20294;-57
2024/01/29 09:21:04;;;;;;;7.77;5.50;;;6.30;99.90;;;;;;5003355;28;20253;-56
2024/01/29 09:23:31;;;;;;;8.07;6.13;;;6.50;99.90;;;;;;5004194;28;20203;-57
2024/01/29 09:25:58;;;;;;;7.47;5.23;;;6.50;99.90;;;;;;5001519;28;20203;-57
2024/01/29 09:28:24;;;;;;;13.17;6.03;;;6.50;99.90;;;;;;5000587;28;20258;-57
2024/01/29 09:30:51;;;;;;;7.90;5.73;;;6.40;99.90;;;;;;5001577;28;20211;-59
2024/01/29 09:33:19;;;;;;;7.97;5.80;;;6.50;99.90;;;;;;5003800;28;20277;-57
2024/01/29 09:35:46;;;;;;;9.37;5.20;;;6.40;99.90;;;;;;5002862;28;20634;-58
2024/01/29 09:38:14;;;;;;;6.80;5.03;;;6.40;99.90;;;;;;5003456;28;20222;-58
2024/01/29 09:40:44;;;;;;;10.40;5.50;;;6.40;99.90;;;;;;5003946;28;20211;-57
2024/01/29 09:43:12;;;;;;;7.40;5.70;;;6.20;99.90;;;;;;4992982;28;20219;-57
2024/01/29 09:45:40;;;;;;;6.20;4.73;;;6.10;99.90;;;;;;5000517;28;20294;-57
2024/01/29 09:48:12;;;;;;;6.80;5.00;;;6.30;99.90;;;;;;5003667;28;20203;-58
2024/01/29 09:50:41;;;;;;;11.87;5.07;;;6.50;99.90;;;;;;5003801;28;20206;-58
2024/01/29 09:53:11;;;;;;;8.27;5.13;;;6.80;99.90;;;;;;5003556;28;20226;-58
2024/01/29 09:55:37;;;;;;;7.90;5.40;;;7.10;99.90;;;;;;5003598;28;20329;-56
2024/01/29 09:58:05;;;;;;;12.60;5.80;;;7.30;99.90;;;;;;5000621;28;20265;-58
2024/01/29 10:00:31;;;;;;;8.53;5.23;;;7.40;99.90;;;;;;5000259;28;20681;-57
2024/01/29 10:03:02;;;;;;;8.23;5.40;;;7.40;99.90;;;;;;5002655;28;20235;-55
2024/01/29 10:05:31;;;;;;;11.30;8.77;;;7.60;99.90;;;;;;5003690;28;20207;-53
2024/01/29 10:07:59;;;;;;;12.37;6.70;;;7.80;99.90;;;;;;5001301;28;20291;-54
2024/01/29 10:10:26;;;;;;;7.83;5.27;;;8.10;99.90;;;;;;5000271;28;20875;-53
2024/01/29 10:13:03;;;;;;;8.77;5.77;;;8.40;99.90;;;;;;5001597;28;20298;-54
2024/01/29 10:15:31;;;;;;;7.70;5.53;;;8.60;99.90;;;;;;5003791;28;20203;-55
2024/01/29 10:17:58;;;;;;;7.93;5.20;;;8.70;99.90;;;;;;5000973;28;20226;-54
2024/01/29 10:20:24;;;;;;;7.43;5.90;;;9.00;99.90;;;;;;5000565;28;20208;-54
2024/01/29 10:22:59;;;;;;;7.57;5.97;;;9.20;99.90;;;;;;5001240;28;20233;-57
2024/01/29 10:25:26;;;;;;;7.33;4.97;;;9.50;99.90;;;;;;5003865;28;20295;-54
2024/01/29 10:27:53;;;;;;;8.80;6.33;;;9.70;99.90;;;;;;5001555;28;20624;-55
2024/01/29 10:30:20;;;;;;;12.20;5.80;;;9.80;99.90;;;;;;4999825;28;20212;-55
2024/01/29 10:32:47;;;;;;;7.43;5.40;;;9.70;99.90;;;;;;5000263;28;20262;-52
2024/01/29 10:35:14;;;;;;;10.03;5.33;;;9.60;99.90;;;;;;5003432;28;20203;-55
2024/01/29 10:37:46;;;;;;;10.10;5.50;;;9.60;99.90;;;;;;5003001;28;20577;-53
2024/01/29 10:40:15;;;;;;;7.83;5.50;;;9.80;99.90;;;;;;4996376;28;20207;-55
2024/01/29 10:42:43;;;;;;;8.63;5.50;;;9.90;99.90;;;;;;5002908;28;20227;-57
2024/01/29 10:45:15;;;;;;;12.97;7.47;;;10.00;99.90;;;;;;4991721;28;20585;-56
2024/01/29 10:47:47;;;;;;;8.97;6.27;;;10.10;99.90;;;;;;5003868;28;20219;-54
2024/01/29 10:50:16;;;;;;;10.73;5.70;;;10.30;99.90;;;;;;4996330;28;20210;-57
2024/01/29 10:52:44;;;;;;;7.30;5.10;;;10.40;99.90;;;;;;5003464;28;20232;-55
2024/01/29 10:55:12;;;;;;;8.87;5.90;;;10.60;99.90;;;;;;4995782;28;20254;-54
2024/01/29 10:57:45;;;;;;;12.83;5.53;;;10.70;99.90;;;;;;5003043;28;20592;-56
2024/01/29 11:00:13;;;;;;;8.07;5.93;;;10.80;99.90;;;;;;4995731;28;20220;-55
2024/01/29 11:02:41;;;;;;;6.93;5.50;;;11.00;99.90;;;;;;5002648;28;20230;-56
2024/01/29 11:05:09;;;;;;;8.23;5.43;;;11.20;99.90;;;;;;5003478;28;20212;-56
2024/01/29 11:07:37;;;;;;;12.43;5.00;;;11.30;99.90;;;;;;5003043;28;20655;-57
2024/01/29 11:10:10;;;;;;;29.27;21.37;;;11.50;99.90;;;;;;5005775;28;20207;-55
2024/01/29 11:12:39;;;;;;;9.60;5.50;;;11.50;99.90;;;;;;5006655;28;20595;-56
2024/01/29 11:15:08;;;;;;;6.80;5.13;;;11.50;99.90;;;;;;5003529;28;20571;-56
2024/01/29 11:17:35;;;;;;;7.20;4.53;;;11.50;99.90;;;;;;5002807;28;20638;-55
2024/01/29 11:20:04;;;;;;;5.83;3.37;;;11.60;99.90;;;;;;5005268;28;20255;-56
2024/01/29 11:22:37;;;;;;;8.53;3.50;;;11.80;99.90;;;;;;5006247;28;20314;-58
2024/01/29 11:25:09;;;;;;;4.73;3.10;;;12.00;99.90;;;;;;5003861;28;20207;-56
2024/01/29 11:27:38;;;;;;;3.90;2.87;;;12.20;99.90;;;;;;5002521;28;20665;-56
2024/01/29 11:30:18;;;;;;;6.40;4.10;;;12.40;99.90;;;;;;5005582;28;20304;-57
2024/01/29 11:32:45;;;;;;;4.50;3.27;;;12.60;99.90;;;;;;5006078;28;20231;-55
2024/01/29 11:35:14;;;;;;;5.70;3.37;;;12.70;99.90;;;;;;4994843;28;20204;-56
2024/01/29 11:37:40;;;;;;;6.37;4.23;;;12.80;99.90;;;;;;5002481;28;20224;-55
2024/01/29 11:40:33;;;;;;;5.03;2.93;;;12.90;99.90;;;;;;5005599;28;20219;-56
2024/01/29 11:43:00;;;;;;;4.93;3.37;;;13.00;99.90;;;;;;5003996;28;20238;-58
2024/01/29 11:45:30;;;;;;;4.37;3.27;;;13.10;99.90;;;;;;5002652;28;20282;-56
2024/01/29 11:47:58;;;;;;;6.50;3.50;;;13.30;99.90;;;;;;5003984;28;20314;-58
2024/01/29 11:50:25;;;;;;;5.97;4.20;;;13.40;99.90;;;;;;5005967;28;20199;-56
2024/01/29 11:52:52;;;;;;;3.67;2.90;;;13.50;99.90;;;;;;5005044;28;20310;-56
2024/01/29 11:55:21;;;;;;;3.70;2.80;;;13.60;99.90;;;;;;5002508;28;20207;-56
2024/01/29 11:57:51;;;;;;;5.37;2.73;;;13.60;99.90;;;;;;5001501;28;20299;-58
2024/01/29 12:00:19;;;;;;;5.33;3.13;;;13.60;99.90;;;;;;5005744;28;20223;-57
2024/01/29 12:02:48;;;;;;;6.90;3.50;;;13.80;99.90;;;;;;5005438;28;20605;-59
2024/01/29 12:05:17;;;;;;;5.70;3.03;;;13.90;99.90;;;;;;5002285;28;20204;-56
2024/01/29 12:07:45;;;;;;;4.87;2.47;;;14.10;99.90;;;;;;5002073;28;20302;-59
2024/01/29 12:10:11;;;;;;;6.23;2.83;;;14.40;99.90;;;;;;4994327;28;20203;-57
2024/01/29 12:12:38;;;;;;;5.87;2.70;;;14.60;99.90;;;;;;5001926;28;20652;-56
2024/01/29 12:15:06;;;;;;;3.43;2.40;;;14.60;99.50;;;;;;5004568;28;20219;-55
2024/01/29 12:17:36;;;;;;;3.87;2.80;;;14.80;98.40;;;;;;5005024;28;20681;-56
2024/01/29 12:20:05;;;;;;;3.80;2.57;;;14.70;98.70;;;;;;5003356;28;20222;-58
2024/01/29 12:22:32;;;;;;;3.40;2.70;;;14.70;98.20;;;;;;5001728;28;20223;-57
2024/01/29 12:25:00;;;;;;;5.90;2.60;;;14.80;98.20;;;;;;5003359;28;20254;-56
2024/01/29 12:27:26;;;;;;;4.80;2.80;;;14.80;97.90;;;;;;5005142;28;20207;-55
2024/01/29 12:29:54;;;;;;;5.50;2.40;;;14.90;97.70;;;;;;5004191;28;20211;-56
2024/01/29 12:32:21;;;;;;;10.00;2.90;;;14.90;96.40;;;;;;5001425;28;20239;-55
2024/01/29 12:34:48;;;;;;;5.77;2.93;;;14.80;96.60;;;;;;5001438;28;20212;-57
2024/01/29 12:37:21;;;;;;;6.73;2.50;;;14.80;96.40;;;;;;5004632;28;20199;-57
2024/01/29 12:39:52;;;;;;;3.97;2.50;;;14.90;95.50;;;;;;5004580;28;20330;-59
2024/01/29 12:42:19;;;;;;;7.57;2.90;;;15.00;94.90;;;;;;5001406;28;20298;-56
2024/01/29 12:44:47;;;;;;;4.80;2.67;;;15.10;94.50;;;;;;5001770;28;20230;-55
2024/01/29 12:47:14;;;;;;;7.50;2.97;;;15.10;94.50;;;;;;5001423;28;20718;-59
2024/01/29 12:49:41;;;;;;;5.97;3.73;;;15.20;94.50;;;;;;5001880;28;20211;-56
2024/01/29 12:52:09;;;;;;;4.73;2.87;;;15.30;94.30;;;;;;5004817;28;20233;-57
2024/01/29 12:54:37;;;;;;;5.33;2.83;;;15.50;94.50;;;;;;5005616;28;20214;-57